Time;durP1;ratioP1;P1;durP2;ratioP2;P2;SDS_P1;SDS_P2;PMS_P1;PMS_P2;Temp;Humidity;BMP_temperature;BMP_pressure;BME280_temperature;BME280_humidity;BME280_pressure;Samples;Min_cycle;Max_cycle;Signal;HPM_P1;HPM_P2
2021/11/14 00:02:12;;;;;;;84.90;47.92;;;;;;;;;;5110145;28;20164;-67
2021/11/14 00:04:38;;;;;;;84.78;49.50;;;;;;;;;;5109652;28;20454;-66
2021/11/14 00:07:04;;;;;;;76.63;44.35;;;;;;;;;;5112557;28;20026;-67
2021/11/14 00:09:30;;;;;;;74.43;44.88;;;;;;;;;;5112031;28;20031;-66
2021/11/14 00:11:57;;;;;;;79.15;42.70;;;;;;;;;;5109694;28;20058;-66
2021/11/14 00:14:23;;;;;;;74.93;45.00;;;;;;;;;;5112133;28;20042;-66
2021/11/14 00:16:49;;;;;;;79.05;44.08;;;;;;;;;;5109463;28;20030;-66
2021/11/14 00:19:16;;;;;;;81.72;46.05;;;;;;;;;;5093988;28;20020;-66
2021/11/14 00:21:42;;;;;;;83.93;45.15;;;;;;;;;;5112471;28;20564;-66
2021/11/14 00:24:12;;;;;;;81.95;46.55;;;;;;;;;;5109964;28;20049;-66
2021/11/14 00:26:38;;;;;;;80.22;45.38;;;;;;;;;;5109757;28;20470;-66
2021/11/14 00:29:05;;;;;;;83.50;44.47;;;;;;;;;;5107285;28;20020;-66
2021/11/14 00:31:32;;;;;;;75.65;43.35;;;;;;;;;;5109752;28;20070;-66
2021/11/14 00:33:58;;;;;;;79.65;44.53;;;;;;;;;;5112010;28;20032;-66
2021/11/14 00:36:27;;;;;;;80.43;43.70;;;;;;;;;;5110564;28;20024;-66
2021/11/14 00:38:54;;;;;;;73.70;40.88;;;;;;;;;;5109828;28;20051;-66
2021/11/14 00:41:21;;;;;;;75.50;41.97;;;;;;;;;;5109682;28;20130;-65
2021/11/14 00:43:47;;;;;;;70.40;39.85;;;;;;;;;;5111423;28;20114;-66
2021/11/14 00:46:14;;;;;;;70.90;39.47;;;;;;;;;;5110232;28;20044;-66
2021/11/14 00:48:43;;;;;;;58.28;35.10;;;;;;;;;;5111973;28;20027;-66
2021/11/14 00:51:24;;;;;;;68.03;37.30;;;;;;;;;;5109609;28;20077;-66
2021/11/14 00:53:50;;;;;;;66.35;35.58;;;;;;;;;;5109473;28;20035;-66
2021/11/14 00:56:16;;;;;;;67.85;37.38;;;;;;;;;;5108685;27;20566;-66
2021/11/14 00:58:42;;;;;;;69.15;37.05;;;;;;;;;;5109418;28;20023;-66
2021/11/14 01:01:08;;;;;;;454.15;46.05;;;;;;;;;;5110023;28;20031;-66
2021/11/14 01:03:34;;;;;;;373.70;43.95;;;;;;;;;;5111577;28;20066;-66
2021/11/14 01:06:01;;;;;;;75.68;36.50;;;;;;;;;;5109420;27;20030;-66
2021/11/14 01:08:28;;;;;;;112.53;43.83;;;;;;;;;;5108573;28;20056;-66
2021/11/14 01:10:55;;;;;;;79.70;44.10;;;;;;;;;;5109240;28;20027;-66
2021/11/14 01:13:21;;;;;;;76.75;43.50;;;;;;;;;;5111110;28;20072;-66
2021/11/14 01:15:48;;;;;;;79.25;44.67;;;;;;;;;;5111728;28;20031;-66
2021/11/14 01:18:15;;;;;;;89.78;46.65;;;;;;;;;;5110838;28;20121;-66
2021/11/14 01:20:42;;;;;;;91.20;45.30;;;;;;;;;;5108650;28;20475;-66
2021/11/14 01:23:10;;;;;;;85.70;43.47;;;;;;;;;;5108357;28;20038;-66
2021/11/14 01:25:36;;;;;;;83.03;46.03;;;;;;;;;;5109133;28;20057;-66
2021/11/14 01:28:02;;;;;;;73.00;41.10;;;;;;;;;;5110191;28;20016;-66
2021/11/14 01:30:34;;;;;;;69.00;38.63;;;;;;;;;;5109773;28;20120;-66
2021/11/14 01:33:02;;;;;;;73.65;41.53;;;;;;;;;;5108152;28;20104;-66
2021/11/14 01:35:28;;;;;;;76.35;41.80;;;;;;;;;;5108271;28;20028;-66
2021/11/14 01:37:54;;;;;;;69.65;38.08;;;;;;;;;;5108454;28;20475;-66
2021/11/14 01:40:22;;;;;;;210.35;46.17;;;;;;;;;;5108855;28;20031;-66
2021/11/14 01:42:48;;;;;;;77.85;43.85;;;;;;;;;;5112030;28;20023;-66
2021/11/14 01:45:15;;;;;;;81.82;45.75;;;;;;;;;;5110506;28;20086;-66
2021/11/14 01:47:41;;;;;;;79.38;43.35;;;;;;;;;;5107901;28;20028;-66
2021/11/14 01:50:09;;;;;;;72.13;42.28;;;;;;;;;;5108495;28;20024;-66
2021/11/14 01:52:35;;;;;;;79.75;44.72;;;;;;;;;;5108683;28;20028;-66
2021/11/14 01:55:01;;;;;;;78.15;44.10;;;;;;;;;;5109965;28;20498;-65
2021/11/14 01:57:27;;;;;;;73.95;43.00;;;;;;;;;;5109385;28;20471;-66
2021/11/14 01:59:53;;;;;;;77.13;42.35;;;;;;;;;;5108273;28;20035;-65
2021/11/14 02:02:20;;;;;;;91.95;44.95;;;;;;;;;;5109518;28;20020;-66
2021/11/14 02:04:46;;;;;;;88.35;46.00;;;;;;;;;;5107414;28;20072;-65
2021/11/14 02:07:14;;;;;;;81.53;44.03;;;;;;;;;;5109163;28;20032;-65
2021/11/14 02:09:40;;;;;;;80.88;42.53;;;;;;;;;;5111390;28;20395;-66
2021/11/14 02:12:06;;;;;;;76.85;41.33;;;;;;;;;;5108447;28;20078;-66
2021/11/14 02:14:32;;;;;;;84.38;42.95;;;;;;;;;;5109735;28;20051;-65
2021/11/14 02:16:59;;;;;;;84.85;44.67;;;;;;;;;;5107899;28;20107;-66
2021/11/14 02:19:25;;;;;;;66.05;38.72;;;;;;;;;;5107880;28;20024;-66
2021/11/14 02:21:54;;;;;;;67.65;38.38;;;;;;;;;;5111279;28;20030;-66
2021/11/14 02:24:20;;;;;;;74.35;41.58;;;;;;;;;;5110407;28;20357;-65
2021/11/14 02:26:47;;;;;;;67.78;38.63;;;;;;;;;;5107734;28;20536;-66
2021/11/14 02:29:13;;;;;;;77.32;41.13;;;;;;;;;;5107932;28;20028;-65
2021/11/14 02:31:39;;;;;;;70.88;39.65;;;;;;;;;;5108209;28;20105;-66
2021/11/14 02:34:05;;;;;;;72.40;39.28;;;;;;;;;;5109448;28;20032;-66
2021/11/14 02:36:31;;;;;;;78.10;41.22;;;;;;;;;;5109532;28;20020;-66
2021/11/14 02:38:57;;;;;;;74.60;40.60;;;;;;;;;;5109845;28;20072;-65
2021/11/14 02:41:24;;;;;;;72.10;40.00;;;;;;;;;;5112161;28;20102;-66
2021/11/14 02:43:50;;;;;;;77.22;39.85;;;;;;;;;;5114118;28;20039;-65
2021/11/14 02:46:17;;;;;;;77.13;40.50;;;;;;;;;;5096142;28;20028;-66
2021/11/14 02:48:44;;;;;;;76.10;39.13;;;;;;;;;;5114324;28;20038;-65
2021/11/14 02:51:12;;;;;;;72.88;38.63;;;;;;;;;;5111939;28;20036;-66
2021/11/14 02:53:38;;;;;;;81.25;39.78;;;;;;;;;;5111338;28;20037;-66
2021/11/14 02:56:05;;;;;;;74.35;38.67;;;;;;;;;;5112020;27;20103;-66
2021/11/14 02:58:31;;;;;;;66.28;35.70;;;;;;;;;;5111116;28;20032;-66
2021/11/14 03:01:12;;;;;;;48.78;27.23;;;;;;;;;;5113894;28;20028;-66
2021/11/14 03:03:38;;;;;;;52.72;27.55;;;;;;;;;;5114374;28;20102;-65
2021/11/14 03:06:04;;;;;;;47.92;26.58;;;;;;;;;;5111832;28;20085;-65
2021/11/14 03:08:31;;;;;;;47.72;27.92;;;;;;;;;;5110532;28;20531;-65
2021/11/14 03:10:57;;;;;;;49.15;28.58;;;;;;;;;;5110158;28;20028;-66
2021/11/14 03:13:23;;;;;;;57.10;31.10;;;;;;;;;;5112004;28;20398;-66
2021/11/14 03:15:58;;;;;;;55.65;30.90;;;;;;;;;;5114368;28;20028;-66
2021/11/14 03:18:24;;;;;;;51.88;32.28;;;;;;;;;;5112240;28;20023;-66
2021/11/14 03:20:51;;;;;;;57.22;31.92;;;;;;;;;;5111222;28;20463;-65
2021/11/14 03:23:19;;;;;;;53.38;31.40;;;;;;;;;;5110730;28;20063;-65
2021/11/14 03:25:45;;;;;;;55.70;30.70;;;;;;;;;;5110988;28;20031;-66
2021/11/14 03:28:12;;;;;;;50.85;29.50;;;;;;;;;;5112005;28;20400;-65
2021/11/14 03:30:38;;;;;;;49.28;27.50;;;;;;;;;;5113311;28;20040;-65
2021/11/14 03:33:05;;;;;;;46.63;26.75;;;;;;;;;;5110372;28;20439;-66
2021/11/14 03:35:47;;;;;;;51.27;29.07;;;;;;;;;;5111062;28;20035;-66
2021/11/14 03:38:13;;;;;;;51.08;28.00;;;;;;;;;;5110897;28;20023;-66
2021/11/14 03:40:40;;;;;;;58.15;29.42;;;;;;;;;;5109364;28;20067;-66
2021/11/14 03:43:06;;;;;;;53.10;29.30;;;;;;;;;;5112350;28;20020;-66
2021/11/14 03:45:32;;;;;;;53.10;28.52;;;;;;;;;;5113853;28;20043;-66
2021/11/14 03:47:58;;;;;;;44.30;26.20;;;;;;;;;;5110850;28;20028;-66
2021/11/14 03:50:25;;;;;;;49.97;25.73;;;;;;;;;;5109591;28;20028;-66
2021/11/14 03:52:51;;;;;;;52.40;27.83;;;;;;;;;;5110359;28;20027;-66
2021/11/14 03:55:17;;;;;;;55.63;29.25;;;;;;;;;;5110777;28;20050;-68
2021/11/14 03:57:44;;;;;;;51.80;28.38;;;;;;;;;;5113926;28;20028;-68
2021/11/14 04:00:18;;;;;;;56.50;30.98;;;;;;;;;;5111312;28;20024;-68
2021/11/14 04:02:44;;;;;;;54.35;31.75;;;;;;;;;;5110532;28;20383;-68
2021/11/14 04:05:10;;;;;;;50.13;29.58;;;;;;;;;;5110001;28;20054;-68
2021/11/14 04:07:37;;;;;;;51.58;30.67;;;;;;;;;;5110011;28;20016;-68
2021/11/14 04:10:04;;;;;;;52.25;31.58;;;;;;;;;;5112087;28;20027;-68
2021/11/14 04:12:30;;;;;;;61.20;34.20;;;;;;;;;;5112319;28;20031;-68
2021/11/14 04:14:56;;;;;;;60.92;33.17;;;;;;;;;;5111859;28;20425;-68
2021/11/14 04:17:22;;;;;;;61.97;33.05;;;;;;;;;;5110135;28;20026;-68
2021/11/14 04:19:48;;;;;;;60.40;32.00;;;;;;;;;;5109977;28;20103;-68
2021/11/14 04:22:14;;;;;;;60.50;32.08;;;;;;;;;;5110698;28;20024;-68
2021/11/14 04:24:41;;;;;;;54.55;30.48;;;;;;;;;;5112554;28;20046;-68
2021/11/14 04:27:07;;;;;;;50.70;28.55;;;;;;;;;;5109994;28;20023;-68
2021/11/14 04:29:33;;;;;;;55.00;29.92;;;;;;;;;;5109202;28;20035;-68
2021/11/14 04:31:59;;;;;;;48.33;29.30;;;;;;;;;;5109881;28;20046;-68
2021/11/14 04:34:25;;;;;;;52.42;30.70;;;;;;;;;;5109694;28;20054;-68
2021/11/14 04:36:51;;;;;;;57.35;31.20;;;;;;;;;;5112909;28;20023;-67
2021/11/14 04:39:17;;;;;;;54.40;29.90;;;;;;;;;;5109818;28;20031;-68
2021/11/14 04:41:43;;;;;;;49.30;28.58;;;;;;;;;;5109838;28;20039;-68
2021/11/14 04:44:09;;;;;;;49.55;30.40;;;;;;;;;;5111314;28;20046;-68
2021/11/14 04:46:35;;;;;;;51.35;29.67;;;;;;;;;;5109663;28;20035;-67
2021/11/14 04:49:01;;;;;;;55.97;30.83;;;;;;;;;;5111413;28;20066;-68
2021/11/14 04:51:27;;;;;;;55.83;30.63;;;;;;;;;;5110494;28;20483;-68
2021/11/14 04:53:53;;;;;;;51.28;29.13;;;;;;;;;;5109064;28;20046;-68
2021/11/14 04:56:20;;;;;;;49.65;28.05;;;;;;;;;;5109552;28;20030;-68
2021/11/14 04:58:46;;;;;;;50.17;28.77;;;;;;;;;;5109169;28;20024;-68
2021/11/14 05:01:12;;;;;;;50.28;26.90;;;;;;;;;;5109627;28;20467;-68
2021/11/14 05:03:38;;;;;;;50.28;27.77;;;;;;;;;;5111442;28;20548;-68
2021/11/14 05:06:08;;;;;;;48.47;26.83;;;;;;;;;;5109496;28;20031;-68
2021/11/14 05:08:34;;;;;;;51.83;28.15;;;;;;;;;;5107438;28;20105;-68
2021/11/14 05:11:00;;;;;;;56.95;30.38;;;;;;;;;;5109029;28;20108;-68
2021/11/14 05:13:26;;;;;;;61.63;32.60;;;;;;;;;;5111346;28;20027;-68
2021/11/14 05:15:52;;;;;;;68.28;32.55;;;;;;;;;;5110959;28;20039;-68
2021/11/14 05:18:18;;;;;;;84.30;35.05;;;;;;;;;;5109732;28;20094;-68
2021/11/14 05:20:45;;;;;;;90.55;34.13;;;;;;;;;;5108865;28;20028;-68
2021/11/14 05:23:15;;;;;;;66.93;34.63;;;;;;;;;;5108731;28;20483;-68
2021/11/14 05:25:41;;;;;;;81.78;34.92;;;;;;;;;;5108739;28;20027;-68
2021/11/14 05:28:07;;;;;;;64.28;35.08;;;;;;;;;;5109808;28;25072;-68
2021/11/14 05:30:34;;;;;;;63.15;34.40;;;;;;;;;;5110469;28;20047;-68
2021/11/14 05:33:00;;;;;;;60.30;34.38;;;;;;;;;;5108695;28;20028;-68
2021/11/14 05:35:26;;;;;;;56.45;31.90;;;;;;;;;;5108215;28;20047;-68
2021/11/14 05:37:52;;;;;;;60.00;31.85;;;;;;;;;;5107226;28;20035;-68
2021/11/14 05:40:18;;;;;;;55.08;30.25;;;;;;;;;;5107882;28;20038;-68
2021/11/14 05:42:44;;;;;;;55.13;29.80;;;;;;;;;;5112084;28;20015;-68
2021/11/14 05:45:10;;;;;;;57.13;30.50;;;;;;;;;;5110992;28;20034;-66
2021/11/14 05:47:36;;;;;;;53.15;28.48;;;;;;;;;;5108214;28;20061;-66
2021/11/14 05:50:03;;;;;;;87.43;28.75;;;;;;;;;;5108019;28;20482;-67
2021/11/14 05:52:29;;;;;;;58.05;30.70;;;;;;;;;;5106656;28;20028;-68
2021/11/14 05:54:55;;;;;;;57.33;30.90;;;;;;;;;;5106426;28;20078;-67
2021/11/14 05:57:21;;;;;;;47.72;26.90;;;;;;;;;;5105316;28;20024;-67
2021/11/14 06:02:20;;;;;;;49.60;27.40;;;;;;;;;;5105590;28;20447;-68
2021/11/14 06:04:59;;;;;;;49.30;26.95;;;;;;;;;;5105914;28;20030;-68
2021/11/14 06:07:29;;;;;;;39.53;21.38;;;;;;;;;;5102921;28;20426;-68
2021/11/14 06:09:55;;;;;;;34.47;17.48;;;;;;;;;;5103010;28;20463;-67
2021/11/14 06:12:21;;;;;;;29.77;15.27;;;;;;;;;;5105763;28;20399;-67
2021/11/14 06:14:47;;;;;;;25.63;13.88;;;;;;;;;;5109098;28;20483;-67
2021/11/14 06:17:13;;;;;;;30.42;16.17;;;;;;;;;;5109576;28;20028;-68
2021/11/14 06:19:39;;;;;;;31.23;15.23;;;;;;;;;;5107000;28;20027;-67
2021/11/14 06:22:05;;;;;;;30.25;16.08;;;;;;;;;;5108762;28;20490;-67
2021/11/14 06:24:31;;;;;;;35.53;18.58;;;;;;;;;;5110543;27;20070;-67
2021/11/14 06:26:57;;;;;;;33.45;17.52;;;;;;;;;;5108797;28;20028;-68
2021/11/14 06:29:23;;;;;;;25.25;13.88;;;;;;;;;;5109340;28;20035;-67
2021/11/14 06:31:49;;;;;;;30.48;15.82;;;;;;;;;;5105653;28;20102;-68
2021/11/14 06:34:15;;;;;;;27.17;14.70;;;;;;;;;;5110213;28;20039;-68
2021/11/14 06:36:41;;;;;;;29.70;16.08;;;;;;;;;;5108046;28;20467;-68
2021/11/14 06:39:07;;;;;;;33.28;17.33;;;;;;;;;;5108940;28;20091;-68
2021/11/14 06:41:33;;;;;;;29.05;16.77;;;;;;;;;;5108795;28;20020;-67
2021/11/14 06:43:59;;;;;;;24.48;14.25;;;;;;;;;;5107180;28;20020;-67
2021/11/14 06:46:25;;;;;;;24.15;12.98;;;;;;;;;;5106776;28;20106;-68
2021/11/14 06:48:51;;;;;;;20.63;12.48;;;;;;;;;;5107686;28;20106;-69
2021/11/14 06:51:17;;;;;;;23.77;12.90;;;;;;;;;;5108082;28;20028;-68
2021/11/14 06:53:43;;;;;;;27.38;14.30;;;;;;;;;;5110702;28;20035;-69
2021/11/14 06:56:09;;;;;;;27.77;14.50;;;;;;;;;;5111017;28;20023;-68
2021/11/14 06:58:35;;;;;;;31.58;16.05;;;;;;;;;;5111353;28;20027;-68
2021/11/14 07:01:01;;;;;;;32.25;15.85;;;;;;;;;;5114141;28;20028;-67
2021/11/14 07:03:27;;;;;;;27.38;15.48;;;;;;;;;;5111924;28;20754;-68
2021/11/14 07:05:53;;;;;;;20.52;12.95;;;;;;;;;;5111514;28;20479;-67
2021/11/14 07:08:19;;;;;;;17.20;9.80;;;;;;;;;;5111139;28;20111;-67
2021/11/14 07:10:45;;;;;;;18.58;10.50;;;;;;;;;;5111470;28;20076;-67
2021/11/14 07:13:11;;;;;;;19.63;10.45;;;;;;;;;;5107361;28;20039;-67
2021/11/14 07:15:37;;;;;;;16.50;9.60;;;;;;;;;;5109737;28;20027;-67
2021/11/14 07:18:03;;;;;;;22.15;10.32;;;;;;;;;;5109560;27;20447;-67
2021/11/14 07:20:29;;;;;;;17.42;10.30;;;;;;;;;;5109079;28;20107;-68
2021/11/14 07:22:55;;;;;;;19.58;10.50;;;;;;;;;;5106420;28;20110;-68
2021/11/14 07:25:21;;;;;;;17.08;10.93;;;;;;;;;;5105259;28;20059;-68
2021/11/14 07:27:49;;;;;;;20.13;12.45;;;;;;;;;;5088306;28;20024;-68
2021/11/14 07:30:15;;;;;;;18.77;10.65;;;;;;;;;;5107974;28;20062;-68
2021/11/14 07:32:42;;;;;;;20.48;10.38;;;;;;;;;;5106649;28;20494;-68
2021/11/14 07:35:09;;;;;;;17.60;10.52;;;;;;;;;;5111578;28;20047;-68
2021/11/14 07:37:35;;;;;;;20.15;10.93;;;;;;;;;;5110689;28;20023;-66
2021/11/14 07:40:01;;;;;;;20.70;11.70;;;;;;;;;;5113258;28;20110;-66
2021/11/14 07:42:27;;;;;;;20.25;11.20;;;;;;;;;;5111047;28;20075;-66
2021/11/14 07:44:53;;;;;;;16.58;9.85;;;;;;;;;;5112635;28;20115;-66
2021/11/14 07:47:19;;;;;;;17.92;9.35;;;;;;;;;;5110362;28;20059;-66
2021/11/14 07:49:45;;;;;;;16.30;10.02;;;;;;;;;;5109362;28;20031;-65
2021/11/14 07:52:11;;;;;;;18.23;10.70;;;;;;;;;;5111461;28;20310;-66
2021/11/14 07:54:37;;;;;;;17.70;10.27;;;;;;;;;;5113127;28;20491;-66
2021/11/14 07:57:03;;;;;;;12.45;7.38;;;;;;;;;;5109263;28;20031;-67
2021/11/14 07:59:29;;;;;;;13.70;7.25;;;;;;;;;;5109666;28;20028;-67
2021/11/14 08:01:55;;;;;;;13.20;7.28;;;;;;;;;;5109954;28;20080;-67
2021/11/14 08:04:21;;;;;;;15.35;9.52;;;;;;;;;;5102050;28;20029;-67
2021/11/14 08:06:47;;;;;;;15.90;9.15;;;;;;;;;;5113557;28;20024;-67
2021/11/14 08:09:13;;;;;;;20.95;11.98;;;;;;;;;;5108992;28;20497;-66
2021/11/14 08:11:39;;;;;;;22.38;11.50;;;;;;;;;;5107797;28;20107;-67
2021/11/14 08:14:05;;;;;;;21.63;11.80;;;;;;;;;;5109215;28;20063;-68
2021/11/14 08:16:31;;;;;;;21.27;13.60;;;;;;;;;;5107246;28;20034;-67
2021/11/14 08:18:57;;;;;;;24.42;12.63;;;;;;;;;;5110844;28;20031;-67
2021/11/14 08:21:23;;;;;;;24.83;13.27;;;;;;;;;;5105518;28;20028;-67
2021/11/14 08:23:49;;;;;;;22.20;13.40;;;;;;;;;;5108971;28;20383;-67
2021/11/14 08:26:15;;;;;;;24.33;13.00;;;;;;;;;;5108345;28;20016;-67
2021/11/14 08:28:41;;;;;;;24.30;14.23;;;;;;;;;;5109625;28;20075;-67
2021/11/14 08:31:07;;;;;;;27.77;14.45;;;;;;;;;;5110233;28;20043;-67
2021/11/14 08:33:33;;;;;;;25.85;13.23;;;;;;;;;;5109227;28;20417;-67
2021/11/14 08:36:00;;;;;;;25.13;12.27;;;;;;;;;;5108975;28;20118;-67
2021/11/14 08:38:27;;;;;;;23.85;13.43;;;;;;;;;;5109690;28;20073;-67
2021/11/14 08:40:54;;;;;;;24.80;13.32;;;;;;;;;;5109687;28;20040;-67
2021/11/14 08:43:21;;;;;;;28.60;16.17;;;;;;;;;;5098637;28;20391;-67
2021/11/14 08:45:47;;;;;;;26.40;16.35;;;;;;;;;;5112653;28;20019;-67
2021/11/14 08:48:13;;;;;;;24.13;12.52;;;;;;;;;;5109449;28;20027;-67
2021/11/14 08:50:40;;;;;;;18.00;9.82;;;;;;;;;;5109571;28;20055;-67
2021/11/14 08:53:06;;;;;;;18.55;10.93;;;;;;;;;;5108615;28;20028;-67
2021/11/14 08:55:32;;;;;;;21.17;12.02;;;;;;;;;;5109193;28;20032;-67
2021/11/14 08:57:59;;;;;;;20.70;11.40;;;;;;;;;;5111756;28;20094;-67
2021/11/14 09:00:27;;;;;;;18.60;12.00;;;;;;;;;;5109827;28;20031;-67
2021/11/14 09:02:54;;;;;;;20.92;14.02;;;;;;;;;;5109359;28;20011;-67
2021/11/14 09:05:22;;;;;;;18.35;11.60;;;;;;;;;;5108450;28;20072;-67
2021/11/14 09:07:48;;;;;;;29.75;14.98;;;;;;;;;;5109257;28;20023;-68
2021/11/14 09:10:14;;;;;;;26.38;14.35;;;;;;;;;;5109631;28;20020;-67
2021/11/14 09:12:40;;;;;;;26.05;14.05;;;;;;;;;;5112114;28;20042;-67
2021/11/14 09:15:06;;;;;;;30.13;15.68;;;;;;;;;;5110666;28;20035;-67
2021/11/14 09:17:32;;;;;;;30.98;15.25;;;;;;;;;;5108811;28;20036;-67
2021/11/14 09:19:58;;;;;;;31.98;14.45;;;;;;;;;;5108967;28;20030;-67
2021/11/14 09:22:25;;;;;;;25.70;14.02;;;;;;;;;;5108811;28;20028;-67
2021/11/14 09:24:50;;;;;;;31.27;17.02;;;;;;;;;;5111550;28;20483;-67
2021/11/14 09:27:16;;;;;;;28.40;15.13;;;;;;;;;;5109614;28;20034;-67
2021/11/14 09:29:42;;;;;;;31.20;15.95;;;;;;;;;;5108819;28;20102;-67
2021/11/14 09:32:09;;;;;;;24.02;14.20;;;;;;;;;;5108251;28;20073;-68
2021/11/14 09:34:35;;;;;;;26.45;14.50;;;;;;;;;;5107971;28;20047;-68
2021/11/14 09:37:02;;;;;;;23.60;13.82;;;;;;;;;;5111057;28;20379;-67
2021/11/14 09:39:28;;;;;;;20.50;12.48;;;;;;;;;;5109931;28;20023;-67
2021/11/14 09:41:54;;;;;;;18.77;10.90;;;;;;;;;;5108674;28;20352;-67
2021/11/14 09:44:21;;;;;;;17.77;10.70;;;;;;;;;;5110103;28;20394;-67
2021/11/14 09:46:47;;;;;;;19.95;10.50;;;;;;;;;;5107020;28;20398;-67
2021/11/14 09:49:14;;;;;;;20.92;10.45;;;;;;;;;;5108708;28;20016;-67
2021/11/14 09:51:40;;;;;;;21.50;11.10;;;;;;;;;;5111338;28;20055;-67
2021/11/14 09:54:07;;;;;;;18.50;10.23;;;;;;;;;;5107790;28;20083;-67
2021/11/14 09:56:33;;;;;;;18.13;10.35;;;;;;;;;;5108095;28;20042;-68
2021/11/14 09:58:59;;;;;;;16.63;9.40;;;;;;;;;;5108246;28;20107;-67
2021/11/14 10:01:25;;;;;;;18.45;10.15;;;;;;;;;;5108461;28;20499;-67
2021/11/14 10:03:51;;;;;;;19.02;11.38;;;;;;;;;;5111627;28;20040;-68
2021/11/14 10:06:21;;;;;;;19.38;10.85;;;;;;;;;;5108266;28;20034;-68
2021/11/14 10:08:48;;;;;;;21.00;11.30;;;;;;;;;;5107939;28;20016;-69
2021/11/14 10:11:14;;;;;;;18.40;10.52;;;;;;;;;;5108440;28;20031;-69
2021/11/14 10:13:45;;;;;;;16.80;9.40;;;;;;;;;;5110099;28;20043;-68
2021/11/14 10:16:13;;;;;;;16.65;10.02;;;;;;;;;;5109142;28;20486;-68
2021/11/14 10:18:39;;;;;;;16.15;8.95;;;;;;;;;;5110906;28;20027;-68
2021/11/14 10:21:05;;;;;;;18.00;9.23;;;;;;;;;;5107868;28;20027;-70
2021/11/14 10:23:33;;;;;;;16.90;9.57;;;;;;;;;;5108294;28;20065;-68
2021/11/14 10:26:04;;;;;;;17.92;10.13;;;;;;;;;;5108170;28;20028;-68
2021/11/14 10:28:30;;;;;;;15.13;9.38;;;;;;;;;;5107353;28;20498;-68
2021/11/14 10:30:56;;;;;;;11.90;7.30;;;;;;;;;;5110574;28;20062;-67
2021/11/14 10:33:23;;;;;;;16.02;7.47;;;;;;;;;;5109172;28;20025;-68
2021/11/14 10:35:51;;;;;;;12.57;7.93;;;;;;;;;;5102305;28;20027;-68
2021/11/14 10:38:19;;;;;;;10.90;6.95;;;;;;;;;;5107568;28;20417;-67
2021/11/14 10:40:46;;;;;;;11.70;7.10;;;;;;;;;;5107909;28;20015;-68
2021/11/14 10:43:12;;;;;;;12.57;7.05;;;;;;;;;;5110085;28;20376;-67
2021/11/14 10:45:40;;;;;;;11.43;6.47;;;;;;;;;;5111450;28;20069;-68
2021/11/14 10:48:10;;;;;;;11.23;5.65;;;;;;;;;;5107961;28;20391;-67
2021/11/14 10:50:38;;;;;;;9.10;5.25;;;;;;;;;;5107616;28;20028;-67
2021/11/14 10:53:09;;;;;;;9.15;5.43;;;;;;;;;;5107259;28;20112;-67
2021/11/14 10:55:40;;;;;;;6.95;3.97;;;;;;;;;;5107793;28;20090;-67
2021/11/14 10:58:08;;;;;;;6.85;3.47;;;;;;;;;;5109729;28;20114;-67
2021/11/14 11:00:34;;;;;;;6.13;3.55;;;;;;;;;;5112956;28;20081;-67
2021/11/14 11:03:01;;;;;;;5.65;3.20;;;;;;;;;;5110901;28;20550;-67
2021/11/14 11:05:28;;;;;;;4.67;2.83;;;;;;;;;;5111534;27;20031;-67
2021/11/14 11:08:03;;;;;;;6.20;3.10;;;;;;;;;;5111626;28;20478;-67
2021/11/14 11:10:43;;;;;;;5.60;2.80;;;;;;;;;;5111510;28;20656;-67
2021/11/14 11:13:14;;;;;;;3.42;2.10;;;;;;;;;;5113787;28;20406;-67
2021/11/14 11:15:44;;;;;;;3.92;1.98;;;;;;;;;;5114788;28;20127;-67
2021/11/14 11:18:11;;;;;;;3.40;1.73;;;;;;;;;;5110762;28;20509;-67
2021/11/14 11:20:38;;;;;;;3.33;1.90;;;;;;;;;;5111172;28;20024;-67
2021/11/14 11:23:07;;;;;;;4.05;2.25;;;;;;;;;;5111079;28;20467;-67
2021/11/14 11:25:44;;;;;;;4.40;2.55;;;;;;;;;;5111022;28;20111;-67
2021/11/14 11:28:21;;;;;;;4.47;2.83;;;;;;;;;;5112679;28;20412;-68
2021/11/14 11:30:48;;;;;;;5.22;2.50;;;;;;;;;;5110043;28;20093;-68
2021/11/14 11:33:18;;;;;;;7.10;2.92;;;;;;;;;;5111360;28;20555;-67
2021/11/14 11:35:44;;;;;;;5.65;2.60;;;;;;;;;;5110733;27;20035;-67
2021/11/14 11:38:10;;;;;;;7.25;2.90;;;;;;;;;;5110952;28;20035;-67
2021/11/14 11:40:37;;;;;;;7.22;3.20;;;;;;;;;;5110858;28;20038;-67
2021/11/14 11:43:03;;;;;;;6.85;3.03;;;;;;;;;;5113386;28;20015;-68
2021/11/14 11:45:31;;;;;;;5.53;2.80;;;;;;;;;;5111795;28;20028;-67
2021/11/14 11:47:58;;;;;;;2.08;1.33;;;;;;;;;;5110726;28;20016;-67
2021/11/14 11:50:26;;;;;;;2.85;1.20;;;;;;;;;;5110547;28;20035;-67
2021/11/14 11:52:52;;;;;;;3.42;1.00;;;;;;;;;;5110773;28;20024;-67
2021/11/14 11:55:19;;;;;;;2.50;1.38;;;;;;;;;;5110145;28;20076;-67
2021/11/14 11:57:45;;;;;;;3.50;1.17;;;;;;;;;;5109745;28;20096;-67
2021/11/14 12:00:11;;;;;;;4.85;2.00;;;;;;;;;;5110185;28;20453;-67
2021/11/14 12:02:37;;;;;;;3.17;1.25;;;;;;;;;;5109693;28;20047;-67
2021/11/14 12:05:06;;;;;;;5.88;1.42;;;;;;;;;;5110440;28;20059;-67
2021/11/14 12:07:34;;;;;;;4.07;1.92;;;;;;;;;;5110427;28;20464;-67
2021/11/14 12:10:00;;;;;;;2.45;1.50;;;;;;;;;;5112479;28;20034;-67
2021/11/14 12:12:28;;;;;;;6.30;5.07;;;;;;;;;;5110132;28;20023;-68
2021/11/14 12:15:15;;;;;;;2.90;1.77;;;;;;;;;;5112282;28;20050;-68
2021/11/14 12:17:48;;;;;;;28.90;25.80;;;;;;;;;;5096040;28;20035;-67
2021/11/14 12:20:16;;;;;;;3.83;1.70;;;;;;;;;;5110164;28;20093;-68
2021/11/14 12:22:43;;;;;;;3.97;2.00;;;;;;;;;;5110039;28;20077;-67
2021/11/14 12:25:19;;;;;;;8.80;5.50;;;;;;;;;;5111295;28;20059;-68
2021/11/14 12:27:56;;;;;;;6.68;3.53;;;;;;;;;;5109170;28;20483;-68
2021/11/14 12:30:22;;;;;;;1.48;1.10;;;;;;;;;;5112073;28;20076;-67
2021/11/14 12:32:49;;;;;;;4.43;1.50;;;;;;;;;;5109917;28;20023;-67
2021/11/14 12:35:24;;;;;;;4.03;1.73;;;;;;;;;;5109342;28;20114;-67
2021/11/14 12:37:53;;;;;;;2.53;1.48;;;;;;;;;;5109496;28;20016;-68
2021/11/14 12:40:22;;;;;;;;;;;;;;;;;;5094302;28;20076;-65
2021/11/14 12:42:48;;;;;;;5.80;2.38;;;;;;;;;;5109008;28;19904;-66
2021/11/14 12:45:15;;;;;;;9.23;3.47;;;;;;;;;;5111813;28;20024;-67
2021/11/14 12:47:40;;;;;;;3.55;1.48;;;;;;;;;;5109230;28;20118;-66
2021/11/14 12:50:08;;;;;;;5.60;1.63;;;;;;;;;;5109124;28;20063;-66
2021/11/14 12:52:36;;;;;;;3.05;1.63;;;;;;;;;;5109472;28;20356;-66
2021/11/14 12:55:05;;;;;;;4.82;2.00;;;;;;;;;;5111743;28;20566;-66
2021/11/14 12:57:42;;;;;;;5.55;1.60;;;;;;;;;;5110391;28;20420;-66
2021/11/14 13:00:09;;;;;;;2.22;1.33;;;;;;;;;;5109342;28;20027;-67
2021/11/14 13:02:35;;;;;;;8.00;4.15;;;;;;;;;;5109366;28;20024;-66
2021/11/14 13:05:08;;;;;;;6.50;3.47;;;;;;;;;;5109175;28;20067;-66
2021/11/14 13:07:35;;;;;;;3.30;2.08;;;;;;;;;;5108264;28;20350;-66
2021/11/14 13:10:01;;;;;;;6.00;1.58;;;;;;;;;;5111744;28;20020;-66
2021/11/14 13:12:28;;;;;;;2.85;1.40;;;;;;;;;;5110390;28;20052;-67
2021/11/14 13:14:59;;;;;;;4.20;1.50;;;;;;;;;;5110994;28;20115;-67
2021/11/14 13:17:27;;;;;;;4.22;1.75;;;;;;;;;;5108478;28;20022;-67
2021/11/14 13:19:55;;;;;;;3.15;1.70;;;;;;;;;;5108905;28;20368;-67
2021/11/14 13:22:21;;;;;;;3.92;1.42;;;;;;;;;;5108828;28;20019;-67
2021/11/14 13:24:55;;;;;;;3.90;1.63;;;;;;;;;;5112191;28;20031;-66
2021/11/14 13:27:21;;;;;;;1.98;1.10;;;;;;;;;;5111426;28;20031;-67
2021/11/14 13:29:49;;;;;;;2.97;1.60;;;;;;;;;;5108198;28;20025;-67
2021/11/14 13:32:17;;;;;;;2.50;1.33;;;;;;;;;;5108830;28;20448;-67
2021/11/14 13:34:44;;;;;;;2.33;1.40;;;;;;;;;;5108589;28;20044;-67
2021/11/14 13:37:13;;;;;;;2.72;1.30;;;;;;;;;;5109259;28;20384;-67
2021/11/14 13:39:47;;;;;;;2.50;1.30;;;;;;;;;;5110721;28;20031;-67
2021/11/14 13:42:15;;;;;;;2.60;1.40;;;;;;;;;;5108575;28;20477;-66
2021/11/14 13:44:42;;;;;;;3.63;1.58;;;;;;;;;;5110786;28;20497;-67
2021/11/14 13:47:16;;;;;;;3.70;1.38;;;;;;;;;;5108519;28;20016;-66
2021/11/14 13:49:43;;;;;;;3.65;1.30;;;;;;;;;;5107725;28;20019;-66
2021/11/14 13:52:11;;;;;;;3.20;1.52;;;;;;;;;;5109871;28;20046;-66
2021/11/14 13:54:47;;;;;;;4.03;1.90;;;;;;;;;;5110416;28;20031;-66
2021/11/14 13:57:13;;;;;;;3.83;1.75;;;;;;;;;;5108079;28;20027;-66
2021/11/14 13:59:39;;;;;;;2.10;1.30;;;;;;;;;;5107823;28;20027;-66
2021/11/14 14:02:07;;;;;;;3.97;2.08;;;;;;;;;;5108387;28;20027;-66
2021/11/14 14:04:33;;;;;;;5.60;3.03;;;;;;;;;;5108203;28;20030;-66
2021/11/14 14:07:03;;;;;;;7.38;2.97;;;;;;;;;;5110139;28;20050;-66
2021/11/14 14:09:29;;;;;;;5.85;3.28;;;;;;;;;;5109232;28;20407;-67
2021/11/14 14:11:55;;;;;;;5.88;3.30;;;;;;;;;;5107908;28;20091;-67
2021/11/14 14:14:22;;;;;;;6.15;4.25;;;;;;;;;;5110377;28;20032;-67
2021/11/14 14:16:48;;;;;;;16.23;11.05;;;;;;;;;;5108090;28;20019;-67
2021/11/14 14:19:14;;;;;;;9.77;6.15;;;;;;;;;;5107918;28;20161;-67
2021/11/14 14:21:41;;;;;;;8.30;4.57;;;;;;;;;;5110875;28;20069;-67
2021/11/14 14:24:08;;;;;;;7.05;4.10;;;;;;;;;;5107948;28;20568;-67
2021/11/14 14:26:37;;;;;;;9.38;4.60;;;;;;;;;;5108084;28;20024;-66